Ana Sayfa
METAR-TAF:

METAR-TAF

Havaalanları :

Madrid Barajas Uluslararası Havalimanı

Madrid, İspanya

Enlem: 40-27N, Boylam: 003-33W, yükseklik: 609 m

Güncel hava durumu gözlemi

Rapor saat 10:00 UTC de 23 dakika önce yapıldı.
Rüzgar değişken yönden 1 kt
Sıcaklık 2°C
Nem 80%
Basınç 1019 hPa
Görüş mesafesi 10 km veya daha fazla
1500 m altında bulut yok ve kümülonimbus yok

METAR: LEMD 161000Z VRB01KT CAVOK 02/M01 Q1019 NOSIG

Saat: 11:23 (10:23 UTC)

Tahmin

Rapor saat 05:00 UTC de 5 saat ve 23 dakika önce yapıldı.
Ayın 16'si saat 06 UTC'den ayın 17'si saat 12 UTC'ye kadar geçerli Tahmin
Rüzgar değişken yönden 2 kt
Görüş mesafesi 10 km veya daha fazla
1500 m altında bulut yok ve kümülonimbus yok
Olasılık 40% :
Geçici
ayın 16'si saat 13 UTC'den ayın 16'si saat 16 UTC'ye kadar
Rüzgar güneybatıdan 10 kt

TAF: LEMD 160500Z 1606/1712 VRB02KT CAVOK TX13/1616Z TNM04/1607Z PROB40 TEMPO 1613/1616 22010KT

4.000'den fazla havaalanı için hava durumu gözlemleri ve tahminleri (METAR ve TAF raporları).

Kullanılabilir istasyonlar harita üzerinde sarı ve kırmızı noktalarla gösterilir.

İstasyonun adını görmek için fareyi noktanın üzerinde gezdirin.

Sonrasında hava gözlem ve tahminlerini görmek için tıklayın.

Haritayı değiştirmek için: yaklaştırmak için siyah artı işaretli yeşil düğmeye ve uzaklaştırmak için de eksi işaretli düğmeye hızla tıklayın; bitişik haritalar için yeşil okları kullanın.


METAR-TAF: